All Spectrum Aviation - Van Nuys Airport - KVNY

HOME

Condor Squadron KVNY Webcam

Visit our Electronics Store

Condor Squadron Webcam - Van Nuys Airport - KVNY
Picture taken: Sun, 10 May 2020 10:59:00 -0700
YouTube Channel!    Latest Timelapse Movie    Full Size Image    Regular Size Image    

2020/05/26 20:51 KVNY 262051Z AUTO 00000KT 10SM CLR 35/10 A2986 RMK AO2 SLP101 T03500100 58013

HOME

Condor Squadron KVNY Webcam

Visit our Electronics Store